Time;durP1;ratioP1;P1;durP2;ratioP2;P2;SDS_P1;SDS_P2;PMS_P1;PMS_P2;Temp;Humidity;BMP_temperature;BMP_pressure;BME280_temperature;BME280_humidity;BME280_pressure;Samples;Min_cycle;Max_cycle;Signal;HPM_P1;HPM_P2
2023/05/09 00:01:33;;;;;;;12.40;7.30;;;;;;;21.27;51.77;101556.81;5012396;28;20455;-62
2023/05/09 00:03:59;;;;;;;17.00;7.90;;;;;;;21.25;51.63;101555.28;5013912;28;20034;-62
2023/05/09 00:06:27;;;;;;;13.55;7.10;;;;;;;21.21;52.05;101546.66;5012762;28;20036;-62
2023/05/09 00:08:56;;;;;;;12.52;6.82;;;;;;;21.20;51.56;101547.66;5013753;28;20064;-62
2023/05/09 00:11:21;;;;;;;14.10;6.68;;;;;;;21.21;51.88;101543.94;5014208;28;20200;-62
2023/05/09 00:13:48;;;;;;;14.75;7.43;;;;;;;21.19;52.46;101548.69;5012527;28;20475;-62
2023/05/09 00:16:14;;;;;;;14.10;6.45;;;;;;;21.14;52.18;101537.47;5013278;28;20117;-63
2023/05/09 00:18:41;;;;;;;12.02;6.40;;;;;;;21.12;52.10;101542.28;5012542;28;20393;-63
2023/05/09 00:21:07;;;;;;;14.90;7.72;;;;;;;21.04;51.93;101528.69;5013234;28;20054;-62
2023/05/09 00:23:33;;;;;;;15.52;6.78;;;;;;;20.99;52.24;101533.81;5012115;28;20083;-63
2023/05/09 00:25:58;;;;;;;14.90;6.18;;;;;;;20.94;52.18;101532.66;5013282;28;20022;-63
2023/05/09 00:28:24;;;;;;;13.27;6.50;;;;;;;20.88;52.21;101532.31;5013162;28;20489;-62
2023/05/09 00:30:50;;;;;;;12.10;6.10;;;;;;;20.86;52.48;101536.25;5012261;28;20420;-63
2023/05/09 00:33:15;;;;;;;15.20;7.35;;;;;;;20.84;52.75;101527.44;4979661;28;20438;-63
2023/05/09 00:35:40;;;;;;;11.07;6.55;;;;;;;20.80;52.74;101523.34;5011881;28;20452;-63
2023/05/09 00:38:06;;;;;;;12.25;6.13;;;;;;;20.79;52.83;101514.34;5013207;28;20030;-62
2023/05/09 00:40:31;;;;;;;14.02;6.80;;;;;;;20.76;52.68;101517.44;5013131;28;20026;-63
2023/05/09 00:42:58;;;;;;;13.30;6.90;;;;;;;20.75;52.72;101512.16;5011789;28;20103;-63
2023/05/09 00:45:23;;;;;;;13.05;6.93;;;;;;;20.73;52.84;101500.59;5012233;28;20136;-63
2023/05/09 00:47:49;;;;;;;15.07;6.78;;;;;;;20.71;52.84;101495.34;5012325;28;20506;-63
2023/05/09 00:50:15;;;;;;;17.10;7.95;;;;;;;20.68;52.61;101494.84;4996087;28;20041;-62
2023/05/09 00:52:41;;;;;;;13.43;6.93;;;;;;;20.64;52.99;101493.50;5013059;28;20482;-62
2023/05/09 00:55:07;;;;;;;13.88;7.40;;;;;;;20.59;52.91;101485.00;5011583;28;20041;-62
2023/05/09 00:57:33;;;;;;;11.95;6.68;;;;;;;20.52;52.90;101486.78;5011994;28;20026;-63
2023/05/09 00:59:59;;;;;;;10.45;6.50;;;;;;;20.44;52.67;101475.88;4995236;28;20540;-63
2023/05/09 01:02:25;;;;;;;11.02;6.15;;;;;;;20.37;53.30;101474.91;5013575;28;20038;-63
2023/05/09 01:04:52;;;;;;;13.77;6.22;;;;;;;20.30;53.24;101475.63;5011956;28;20409;-63
2023/05/09 01:07:29;;;;;;;11.52;6.25;;;;;;;20.23;53.40;101474.63;5011946;28;20111;-62
2023/05/09 01:10:15;;;;;;;10.75;5.57;;;;;;;20.14;53.10;101472.09;5012025;28;20018;-62
2023/05/09 01:12:48;;;;;;;12.80;6.75;;;;;;;20.09;53.47;101475.34;5012042;28;20021;-62
2023/05/09 01:15:25;;;;;;;;;;;;;;;20.05;53.44;101482.13;5011930;28;20030;-62
2023/05/09 01:18:08;;;;;;;14.30;6.10;;;;;;;19.99;53.18;101482.84;5011753;28;19940;-63
2023/05/09 01:20:44;;;;;;;12.95;5.85;;;;;;;19.90;53.87;101467.59;5012266;28;20065;-62
2023/05/09 01:23:32;;;;;;;12.57;6.38;;;;;;;19.86;53.82;101465.38;5011484;28;20571;-62
2023/05/09 01:26:24;;;;;;;13.75;7.38;;;;;;;19.76;53.49;101460.13;5012738;28;20108;-62
2023/05/09 01:29:13;;;;;;;12.80;7.05;;;;;;;19.73;53.79;101455.91;5012482;28;20026;-62
2023/05/09 01:31:40;;;;;;;11.40;6.30;;;;;;;19.71;53.86;101459.78;5011180;28;20053;-63
2023/05/09 01:34:07;;;;;;;14.43;7.35;;;;;;;19.70;54.25;101449.94;5014996;28;20426;-62
2023/05/09 01:36:36;;;;;;;10.45;6.82;;;;;;;19.69;54.66;101445.53;5015693;28;20076;-63
2023/05/09 01:39:03;;;;;;;14.02;7.13;;;;;;;19.68;53.88;101449.28;5016513;28;20064;-62
2023/05/09 01:41:30;;;;;;;14.15;7.78;;;;;;;19.66;54.33;101443.16;5016189;28;20498;-62
2023/05/09 01:43:56;;;;;;;13.45;6.63;;;;;;;19.64;53.90;101445.19;5015198;28;20041;-62
2023/05/09 01:46:23;;;;;;;16.08;7.13;;;;;;;19.63;54.25;101441.63;5013934;28;20057;-62
2023/05/09 01:48:49;;;;;;;13.68;6.70;;;;;;;19.60;54.68;101432.97;4998969;28;20026;-62
2023/05/09 01:51:15;;;;;;;16.92;7.75;;;;;;;19.56;54.41;101427.03;4998442;28;20121;-62
2023/05/09 01:53:41;;;;;;;10.88;6.00;;;;;;;19.68;54.56;101432.97;4998004;28;20125;-62
2023/05/09 01:56:07;;;;;;;15.30;5.80;;;;;;;19.73;54.12;101427.84;5014735;28;20034;-62
2023/05/09 01:58:33;;;;;;;12.25;5.97;;;;;;;19.78;54.32;101430.91;4998660;28;20081;-62
2023/05/09 02:00:59;;;;;;;11.50;6.82;;;;;;;19.82;54.90;101432.22;4997851;28;20046;-62
2023/05/09 02:03:25;;;;;;;14.98;6.53;;;;;;;19.83;54.10;101428.50;4998609;28;20533;-62
2023/05/09 02:05:51;;;;;;;12.93;7.57;;;;;;;19.84;54.19;101427.47;5014504;28;20121;-62
2023/05/09 02:08:20;;;;;;;16.60;6.65;;;;;;;19.86;54.44;101417.28;5014512;28;20453;-62
2023/05/09 02:10:47;;;;;;;11.70;5.97;;;;;;;19.89;54.41;101430.53;5014762;28;20046;-62
2023/05/09 02:13:12;;;;;;;11.93;7.25;;;;;;;19.88;54.06;101431.53;5013689;28;20036;-62
2023/05/09 02:15:38;;;;;;;11.85;5.68;;;;;;;19.87;54.02;101432.56;5016330;28;20112;-62
2023/05/09 02:18:03;;;;;;;10.30;6.28;;;;;;;19.86;54.27;101424.56;5014617;28;20045;-62
2023/05/09 02:20:28;;;;;;;10.35;6.45;;;;;;;19.84;54.41;101424.75;5015684;28;20383;-62
2023/05/09 02:22:54;;;;;;;13.27;7.75;;;;;;;19.78;54.27;101425.47;5013732;28;20393;-62
2023/05/09 02:25:19;;;;;;;10.77;6.13;;;;;;;19.74;54.32;101416.78;5015885;28;20026;-62
2023/05/09 02:27:45;;;;;;;9.55;5.60;;;;;;;19.73;54.70;101427.84;5017146;28;20028;-62
2023/05/09 02:30:24;;;;;;;11.82;5.88;;;;;;;19.70;55.01;101428.19;5015787;28;20038;-62
2023/05/09 02:32:51;;;;;;;13.88;6.28;;;;;;;19.69;54.81;101419.19;5015681;28;20036;-62
2023/05/09 02:35:17;;;;;;;10.18;5.53;;;;;;;19.68;55.17;101419.38;4998151;28;20038;-62
2023/05/09 02:37:43;;;;;;;11.32;6.75;;;;;;;19.68;55.27;101414.75;5014090;28;20029;-62
2023/05/09 02:40:09;;;;;;;13.13;6.15;;;;;;;19.70;54.81;101420.03;5013905;28;20056;-62
2023/05/09 02:42:35;;;;;;;12.10;6.35;;;;;;;19.66;54.92;101410.53;5014432;28;20017;-62
2023/05/09 02:45:00;;;;;;;16.70;6.28;;;;;;;19.69;54.81;101418.34;5012780;28;20096;-62
2023/05/09 02:47:26;;;;;;;17.55;8.05;;;;;;;19.70;55.29;101420.03;5015176;28;20056;-62
2023/05/09 02:49:51;;;;;;;13.13;7.00;;;;;;;19.72;55.01;101416.13;5014032;28;20030;-62
2023/05/09 02:52:17;;;;;;;17.00;6.90;;;;;;;19.70;54.90;101401.00;5013846;28;20034;-61
2023/05/09 02:54:42;;;;;;;11.93;6.20;;;;;;;19.66;54.83;101405.94;5015749;28;20018;-63
2023/05/09 02:57:08;;;;;;;12.38;7.10;;;;;;;19.66;55.63;101410.53;5014932;28;20057;-62
2023/05/09 02:59:33;;;;;;;16.38;7.43;;;;;;;19.61;55.93;101399.34;5013446;28;20050;-62
2023/05/09 03:01:58;;;;;;;12.18;7.18;;;;;;;19.63;55.26;101400.00;5015774;28;20061;-67
2023/05/09 03:04:24;;;;;;;15.32;7.85;;;;;;;19.63;55.45;101394.56;5015830;28;20030;-70
2023/05/09 03:06:50;;;;;;;15.25;9.05;;;;;;;19.67;55.91;101390.50;5015765;28;20117;-63
2023/05/09 03:09:15;;;;;;;13.88;7.18;;;;;;;19.67;55.92;101391.34;5013578;28;20060;-62
2023/05/09 03:11:41;;;;;;;17.27;8.50;;;;;;;19.69;55.46;101388.44;5014619;28;20121;-62
2023/05/09 03:14:07;;;;;;;16.35;7.10;;;;;;;19.69;56.01;101386.56;5014414;28;20041;-63
2023/05/09 03:16:33;;;;;;;14.07;7.82;;;;;;;19.71;55.59;101381.78;5015628;28;20030;-63
2023/05/09 03:18:58;;;;;;;12.95;7.43;;;;;;;19.73;55.92;101384.34;5013699;28;20535;-62
2023/05/09 03:21:24;;;;;;;15.27;7.80;;;;;;;19.72;55.67;101388.09;5014646;28;20030;-62
2023/05/09 03:23:50;;;;;;;16.20;7.65;;;;;;;19.70;55.70;101384.72;5013207;28;20041;-62
2023/05/09 03:26:15;;;;;;;18.48;8.18;;;;;;;19.67;55.66;101379.63;5013116;28;20080;-62
2023/05/09 03:28:40;;;;;;;19.60;8.73;;;;;;;19.62;55.84;101371.16;4996776;28;20030;-62
2023/05/09 03:31:06;;;;;;;17.42;8.20;;;;;;;19.61;56.00;101375.72;5012799;28;20482;-62
2023/05/09 03:33:31;;;;;;;18.20;7.95;;;;;;;19.61;56.02;101377.59;5014601;28;20018;-61
2023/05/09 03:35:56;;;;;;;14.82;8.65;;;;;;;19.60;55.68;101367.72;5014152;28;20065;-62
2023/05/09 03:38:24;;;;;;;19.35;8.52;;;;;;;19.58;55.95;101369.78;5012806;28;20041;-62
2023/05/09 03:40:50;;;;;;;14.90;7.78;;;;;;;19.61;56.12;101364.00;5014092;28;20117;-62
2023/05/09 03:43:16;;;;;;;14.93;8.35;;;;;;;19.61;56.21;101359.41;5013917;28;20117;-62
2023/05/09 03:45:42;;;;;;;16.45;8.85;;;;;;;19.60;56.84;101356.84;5014317;28;20030;-62
2023/05/09 03:48:08;;;;;;;19.25;8.20;;;;;;;19.58;56.46;101350.75;5014273;28;20060;-62
2023/05/09 03:50:34;;;;;;;13.30;7.65;;;;;;;19.57;56.09;101347.19;5013901;28;20121;-62
2023/05/09 03:53:00;;;;;;;16.90;8.57;;;;;;;19.59;56.24;101355.19;4996235;28;20037;-62
2023/05/09 03:55:25;;;;;;;17.17;8.80;;;;;;;19.61;56.51;101353.13;5012585;28;20401;-62
2023/05/09 03:57:51;;;;;;;15.25;7.78;;;;;;;19.64;56.40;101352.78;5015240;28;20025;-62
2023/05/09 04:00:16;;;;;;;18.20;8.07;;;;;;;19.62;56.19;101349.41;5012793;28;20049;-62
2023/05/09 04:02:42;;;;;;;13.05;8.00;;;;;;;19.64;56.27;101353.63;5012421;28;20461;-62
2023/05/09 04:05:07;;;;;;;16.52;8.60;;;;;;;19.64;56.16;101341.91;5013396;28;20034;-62
2023/05/09 04:07:33;;;;;;;21.50;9.27;;;;;;;19.67;56.12;101347.00;5015560;28;20087;-62
2023/05/09 04:09:59;;;;;;;18.58;9.15;;;;;;;19.69;56.51;101344.94;5012939;28;20485;-62
2023/05/09 04:12:24;;;;;;;18.45;9.70;;;;;;;19.66;55.93;101338.00;4996338;28;20068;-62
2023/05/09 04:14:51;;;;;;;16.27;9.18;;;;;;;19.66;55.96;101350.72;4996047;28;20034;-62
2023/05/09 04:17:16;;;;;;;17.30;9.15;;;;;;;19.67;56.64;101350.56;5012222;28;20084;-62
2023/05/09 04:19:42;;;;;;;20.13;9.50;;;;;;;19.68;56.14;101341.38;5013605;28;20026;-62
2023/05/09 04:22:07;;;;;;;19.33;10.32;;;;;;;19.65;56.49;101344.44;4979338;28;20080;-62
2023/05/09 04:24:32;;;;;;;21.15;10.07;;;;;;;19.68;56.54;101335.09;5013779;28;20489;-62
2023/05/09 04:26:58;;;;;;;15.98;8.60;;;;;;;19.72;55.87;101333.72;5013257;28;20034;-62
2023/05/09 04:29:23;;;;;;;15.18;8.93;;;;;;;19.75;56.23;101339.66;5012146;28;20116;-62
2023/05/09 04:31:49;;;;;;;14.55;7.15;;;;;;;19.81;56.36;101337.25;5011999;28;20049;-62
2023/05/09 04:34:14;;;;;;;10.68;6.60;;;;;;;19.86;56.03;101335.69;5012387;28;20037;-62
2023/05/09 04:36:40;;;;;;;12.07;7.05;;;;;;;19.92;56.10;101329.56;5014318;28;20033;-62
2023/05/09 04:39:07;;;;;;;14.32;7.35;;;;;;;20.02;55.31;101329.31;5013754;28;20104;-62
2023/05/09 04:41:32;;;;;;;13.55;7.60;;;;;;;20.09;55.47;101331.16;4995934;28;20058;-62
2023/05/09 04:43:58;;;;;;;16.27;6.80;;;;;;;20.19;55.71;101320.03;5013149;28;20135;-62
2023/05/09 04:46:23;;;;;;;13.80;7.68;;;;;;;20.28;54.92;101317.13;5013868;28;20505;-62
2023/05/09 04:48:49;;;;;;;13.23;7.22;;;;;;;20.36;55.28;101320.81;5012776;28;20032;-62
2023/05/09 04:51:14;;;;;;;11.88;6.55;;;;;;;20.40;55.52;101323.00;5012341;28;20053;-62
2023/05/09 04:53:40;;;;;;;10.18;7.20;;;;;;;20.47;55.11;101317.66;5014248;28;20057;-62
2023/05/09 04:56:05;;;;;;;9.02;5.63;;;;;;;20.56;55.17;101311.16;5013113;28;20034;-62
2023/05/09 04:58:33;;;;;;;10.75;6.10;;;;;;;20.61;55.38;101303.28;5013470;28;20037;-62
2023/05/09 05:00:58;;;;;;;11.73;6.82;;;;;;;20.68;54.60;101299.66;5011215;28;20056;-62
2023/05/09 05:03:24;;;;;;;13.40;6.82;;;;;;;20.78;55.69;101302.97;5015566;28;20116;-62
2023/05/09 05:05:49;;;;;;;11.98;6.00;;;;;;;20.81;55.17;101299.03;5031378;28;20509;-62
2023/05/09 05:08:15;;;;;;;11.63;6.05;;;;;;;20.81;55.14;101285.41;5033604;28;20129;-63
2023/05/09 05:10:40;;;;;;;10.75;5.60;;;;;;;20.89;55.14;101298.94;5036557;28;20401;-62
2023/05/09 05:13:05;;;;;;;10.43;6.03;;;;;;;20.92;55.22;101290.41;5036601;28;20435;-62
2023/05/09 05:15:31;;;;;;;11.82;5.32;;;;;;;20.95;54.63;101290.03;5037259;28;20028;-62
2023/05/09 05:17:56;;;;;;;10.55;5.68;;;;;;;21.00;54.38;101275.84;5035045;28;20511;-62
2023/05/09 05:20:22;;;;;;;10.80;5.32;;;;;;;21.08;54.35;101281.28;5036497;28;20029;-62
2023/05/09 05:22:47;;;;;;;7.03;4.80;;;;;;;21.17;54.61;101272.81;5035142;28;20033;-62
2023/05/09 05:25:12;;;;;;;8.77;5.35;;;;;;;21.18;54.49;101260.03;5034695;28;20035;-62
2023/05/09 05:27:38;;;;;;;7.20;5.10;;;;;;;21.20;54.70;101260.69;5036767;28;20056;-62
2023/05/09 05:30:03;;;;;;;9.52;5.28;;;;;;;21.20;53.83;101261.53;5036115;28;20034;-62
2023/05/09 05:32:29;;;;;;;11.18;5.22;;;;;;;21.26;54.44;101266.25;5036188;28;20482;-61
2023/05/09 05:34:56;;;;;;;6.65;4.25;;;;;;;21.34;53.69;101268.88;5035039;28;20401;-62
2023/05/09 05:37:21;;;;;;;7.53;4.45;;;;;;;21.42;54.13;101260.59;5036058;28;20026;-62
2023/05/09 05:39:47;;;;;;;9.23;4.60;;;;;;;21.48;53.73;101265.28;5035127;28;20025;-62
2023/05/09 05:42:12;;;;;;;9.65;5.20;;;;;;;21.62;53.97;101265.44;5035920;28;20455;-62
2023/05/09 05:44:37;;;;;;;10.18;4.93;;;;;;;21.70;53.15;101255.28;5002733;28;20032;-62
2023/05/09 05:47:03;;;;;;;7.93;4.43;;;;;;;21.87;52.81;101250.47;5035856;28;20025;-62
2023/05/09 05:49:28;;;;;;;8.07;4.82;;;;;;;22.05;52.98;101242.72;5018178;28;20029;-62
2023/05/09 05:51:53;;;;;;;5.50;3.95;;;;;;;22.28;51.71;101240.63;5034564;28;20464;-64
2023/05/09 05:54:19;;;;;;;6.45;4.10;;;;;;;22.46;51.23;101238.28;5018620;28;20033;-62
2023/05/09 05:56:44;;;;;;;5.43;3.50;;;;;;;22.62;51.41;101234.44;5035777;28;20453;-62
2023/05/09 05:59:10;;;;;;;6.78;3.42;;;;;;;22.72;51.35;101237.72;5018116;28;20045;-62
2023/05/09 06:01:35;;;;;;;6.60;3.83;;;;;;;22.88;50.40;101242.03;5035431;28;20437;-62
2023/05/09 06:04:01;;;;;;;5.60;3.40;;;;;;;22.94;50.46;101230.31;5034335;28;20515;-62
2023/05/09 06:06:26;;;;;;;10.40;3.40;;;;;;;23.06;50.73;101226.78;5034964;28;20036;-62
2023/05/09 06:08:52;;;;;;;6.10;3.85;;;;;;;23.42;49.52;101220.31;5018229;28;20099;-63
2023/05/09 06:11:17;;;;;;;6.70;3.25;;;;;;;23.63;50.15;101212.81;5035387;28;20030;-62
2023/05/09 06:13:43;;;;;;;4.30;3.13;;;;;;;23.75;48.83;101200.25;5035468;28;20048;-62
2023/05/09 06:16:09;;;;;;;7.32;3.78;;;;;;;23.83;49.77;101212.88;5034446;28;20028;-62
2023/05/09 06:18:36;;;;;;;8.10;3.70;;;;;;;24.27;48.34;101206.88;5051216;28;20481;-62
2023/05/09 06:21:02;;;;;;;7.90;4.05;;;;;;;24.56;47.93;101211.13;5034345;28;20113;-62
2023/05/09 06:23:28;;;;;;;6.00;3.38;;;;;;;24.69;47.65;101201.00;5034004;28;20037;-63
2023/05/09 06:25:53;;;;;;;5.75;3.92;;;;;;;25.01;47.37;101199.31;5051183;28;20025;-62
2023/05/09 06:28:19;;;;;;;7.00;3.78;;;;;;;25.18;47.28;101195.00;5034195;28;20025;-62
2023/05/09 06:30:44;;;;;;;9.07;3.75;;;;;;;25.26;46.82;101192.06;5017890;28;20021;-62
2023/05/09 06:33:10;;;;;;;6.53;3.28;;;;;;;25.33;46.69;101186.53;5033922;28;20124;-62
2023/05/09 06:35:35;;;;;;;6.32;4.15;;;;;;;25.67;46.53;101177.97;5050335;28;20160;-62
2023/05/09 06:38:00;;;;;;;6.32;3.65;;;;;;;25.99;45.33;101179.66;5033950;28;20060;-62
2023/05/09 06:40:26;;;;;;;7.10;3.47;;;;;;;26.11;45.26;101170.69;5033614;28;20517;-62
2023/05/09 06:42:51;;;;;;;6.30;3.13;;;;;;;26.31;45.36;101174.19;5033947;28;20112;-62
2023/05/09 06:45:17;;;;;;;4.88;3.45;;;;;;;26.37;44.54;101165.03;5017003;28;20116;-62
2023/05/09 06:47:42;;;;;;;5.07;3.35;;;;;;;26.33;44.84;101166.53;5033885;28;20532;-62
2023/05/09 06:50:08;;;;;;;7.45;3.75;;;;;;;26.46;45.00;101164.56;5016907;28;20405;-62
2023/05/09 06:52:33;;;;;;;3.55;2.95;;;;;;;26.55;44.65;101168.69;5033396;28;20033;-63
2023/05/09 06:54:59;;;;;;;5.32;2.90;;;;;;;26.65;45.10;101168.19;5033383;28;20060;-63
2023/05/09 06:57:24;;;;;;;6.03;3.55;;;;;;;26.56;44.52;101166.78;5033746;28;20037;-62
2023/05/09 06:59:49;;;;;;;6.63;3.72;;;;;;;26.30;44.99;101158.78;5000429;28;20046;-62
2023/05/09 07:02:15;;;;;;;6.35;2.95;;;;;;;26.04;45.72;101157.03;5016759;28;20220;-62
2023/05/09 07:04:40;;;;;;;8.25;2.90;;;;;;;25.83;45.69;101158.22;5033250;28;20022;-63
2023/05/09 07:07:06;;;;;;;3.72;2.67;;;;;;;25.65;46.18;101158.13;5016590;28;20029;-62
2023/05/09 07:09:31;;;;;;;4.18;2.40;;;;;;;25.59;46.03;101152.69;5033711;28;20025;-63
2023/05/09 07:11:58;;;;;;;10.45;3.05;;;;;;;25.60;45.91;101141.47;5034390;28;20030;-62
2023/05/09 07:14:24;;;;;;;6.97;2.60;;;;;;;25.64;45.75;101141.88;5033076;28;20409;-62
2023/05/09 07:16:49;;;;;;;4.07;2.55;;;;;;;25.63;45.43;101143.78;5000212;28;20037;-62
2023/05/09 07:19:15;;;;;;;4.22;2.38;;;;;;;25.62;45.86;101141.25;5033023;28;20052;-63
2023/05/09 07:21:40;;;;;;;4.90;2.70;;;;;;;25.67;45.25;101134.06;5016749;28;20035;-62
2023/05/09 07:24:06;;;;;;;3.15;2.22;;;;;;;25.82;45.48;101126.38;5033843;28;20044;-61
2023/05/09 07:26:31;;;;;;;4.38;2.10;;;;;;;25.99;44.97;101123.91;5049322;28;20084;-62
2023/05/09 07:28:56;;;;;;;4.20;3.13;;;;;;;26.06;44.40;101127.44;5034123;28;20022;-64
2023/05/09 07:31:22;;;;;;;7.40;2.33;;;;;;;25.98;44.60;101125.81;5015736;28;20169;-64
2023/05/09 07:33:47;;;;;;;4.93;2.58;;;;;;;25.92;44.99;101132.19;5016625;28;20032;-63
2023/05/09 07:36:15;;;;;;;7.05;3.15;;;;;;;25.69;44.96;101112.72;5032655;28;20079;-63
2023/05/09 07:38:40;;;;;;;3.95;2.58;;;;;;;25.61;45.45;101123.94;5032606;28;20030;-63
2023/05/09 07:41:06;;;;;;;4.00;2.30;;;;;;;25.52;45.17;101125.25;5032552;28;20040;-64
2023/05/09 07:43:31;;;;;;;6.03;2.83;;;;;;;25.39;45.36;101125.31;5033668;28;20026;-62
2023/05/09 07:45:57;;;;;;;4.78;2.30;;;;;;;25.19;45.23;101127.28;5033591;28;20152;-63
2023/05/09 07:48:22;;;;;;;4.28;2.67;;;;;;;25.13;45.65;101125.41;5034176;28;20095;-63
2023/05/09 07:50:47;;;;;;;4.38;2.60;;;;;;;25.25;45.14;101123.69;5032464;28;20033;-62
2023/05/09 07:53:13;;;;;;;4.25;2.20;;;;;;;25.46;44.87;101115.16;5032663;28;20033;-62
2023/05/09 07:55:38;;;;;;;5.25;2.97;;;;;;;25.63;44.64;101110.84;5032415;28;20049;-62
2023/05/09 07:58:04;;;;;;;3.35;2.58;;;;;;;25.74;43.97;101112.88;5032351;28;20040;-64
2023/05/09 08:00:29;;;;;;;5.05;2.63;;;;;;;25.84;44.14;101105.00;5032459;28;20049;-63
2023/05/09 08:02:54;;;;;;;5.68;2.50;;;;;;;25.96;44.32;101105.97;5032062;28;20025;-63
2023/05/09 08:05:20;;;;;;;7.68;2.47;;;;;;;25.97;43.44;101096.66;5031955;28;20044;-64
2023/05/09 08:07:45;;;;;;;4.43;2.53;;;;;;;25.83;44.30;101095.09;5033483;28;20037;-62
2023/05/09 08:10:11;;;;;;;4.63;2.45;;;;;;;25.89;43.92;101094.19;5015495;28;20025;-62
2023/05/09 08:12:36;;;;;;;5.25;2.75;;;;;;;26.09;44.10;101098.69;5032614;28;20028;-63
2023/05/09 08:15:02;;;;;;;5.35;2.72;;;;;;;26.26;43.69;101095.19;5048492;28;20044;-62
2023/05/09 08:17:27;;;;;;;6.28;2.72;;;;;;;26.42;42.92;101077.28;5048471;28;20508;-64
2023/05/09 08:19:53;;;;;;;5.22;2.40;;;;;;;26.55;42.82;101080.72;5031773;28;20040;-64
2023/05/09 08:22:19;;;;;;;3.38;2.22;;;;;;;26.85;42.46;101078.13;5031773;28;20030;-64
2023/05/09 08:24:45;;;;;;;7.13;2.70;;;;;;;27.12;41.74;101065.72;5032311;28;20500;-64
2023/05/09 08:27:12;;;;;;;3.97;2.40;;;;;;;27.29;41.81;101057.66;5031831;28;20105;-64
2023/05/09 08:29:42;;;;;;;7.88;2.65;;;;;;;27.40;41.23;101059.59;5032190;28;20040;-64
2023/05/09 08:32:08;;;;;;;4.88;2.50;;;;;;;27.49;41.42;101057.41;5031863;28;20025;-64
2023/05/09 08:34:34;;;;;;;3.85;2.70;;;;;;;27.55;41.97;101056.47;5015439;28;20036;-64
2023/05/09 08:37:00;;;;;;;6.13;2.67;;;;;;;27.50;42.02;101048.06;5015117;28;20021;-64
2023/05/09 08:39:25;;;;;;;4.65;2.72;;;;;;;27.37;41.71;101053.72;5015916;28;20500;-64
2023/05/09 08:41:52;;;;;;;5.75;2.40;;;;;;;27.13;42.73;101053.66;5031908;28;20065;-64
2023/05/09 08:44:20;;;;;;;2.78;2.58;;;;;;;26.75;42.83;101050.28;5031574;28;20037;-64
2023/05/09 08:46:47;;;;;;;3.40;2.78;;;;;;;26.33;43.20;101053.91;5031655;28;20029;-64
2023/05/09 08:49:12;;;;;;;4.82;2.30;;;;;;;26.10;43.41;101050.94;5015394;28;20362;-64
2023/05/09 08:51:38;;;;;;;2.72;1.92;;;;;;;25.77;43.88;101046.56;5015243;28;20029;-63
2023/05/09 08:54:04;;;;;;;3.13;2.42;;;;;;;25.53;44.61;101054.78;5031431;28;20080;-63
2023/05/09 08:56:30;;;;;;;4.63;2.63;;;;;;;25.33;44.75;101054.88;5015134;28;20045;-64
2023/05/09 08:58:55;;;;;;;3.75;2.10;;;;;;;25.22;44.93;101047.34;5031379;28;20040;-64
2023/05/09 09:01:21;;;;;;;3.45;2.40;;;;;;;25.04;44.74;101053.56;5032211;28;20116;-64
2023/05/09 09:03:48;;;;;;;7.65;3.00;;;;;;;24.92;44.86;101051.69;5032187;28;20512;-63
2023/05/09 09:06:17;;;;;;;2.88;1.90;;;;;;;24.84;44.86;101045.44;5031341;28;20045;-64
2023/05/09 09:08:43;;;;;;;3.33;1.98;;;;;;;24.81;44.84;101037.63;5031917;28;20091;-63
2023/05/09 09:11:15;;;;;;;4.10;1.75;;;;;;;24.76;45.16;101033.81;5031353;28;20034;-64
2023/05/09 09:13:41;;;;;;;3.40;2.20;;;;;;;24.70;45.25;101038.28;5014969;28;20496;-63
2023/05/09 09:16:15;;;;;;;3.13;1.80;;;;;;;24.64;44.96;101041.03;5014763;28;20108;-64
2023/05/09 09:18:41;;;;;;;3.35;1.65;;;;;;;24.64;45.00;101033.66;5015436;28;20021;-63
2023/05/09 09:21:08;;;;;;;2.28;1.52;;;;;;;24.68;44.78;101034.88;5015006;28;20033;-64
2023/05/09 09:23:36;;;;;;;3.72;1.90;;;;;;;24.75;44.83;101035.72;5031200;28;20061;-64
2023/05/09 09:26:05;;;;;;;1.67;1.20;;;;;;;24.74;44.46;101030.44;5014703;28;20099;-64
2023/05/09 09:28:30;;;;;;;2.78;1.58;;;;;;;24.71;44.29;101028.97;5015270;28;20113;-63
2023/05/09 09:30:56;;;;;;;1.45;1.33;;;;;;;24.73;44.42;101032.38;5032287;28;20056;-64
2023/05/09 09:33:22;;;;;;;1.30;1.20;;;;;;;24.68;44.81;101029.41;5031548;28;20014;-64
2023/05/09 09:35:49;;;;;;;2.80;1.35;;;;;;;24.69;44.85;101025.63;5031215;28;20092;-64
2023/05/09 09:38:17;;;;;;;3.45;1.40;;;;;;;24.74;44.67;101023.06;5031264;28;20396;-62
2023/05/09 09:40:54;;;;;;;3.17;1.60;;;;;;;24.70;44.52;101018.25;5014516;28;20030;-62
2023/05/09 09:43:26;;;;;;;4.25;2.30;;;;;;;24.68;44.67;101021.19;5047296;28;20045;-62
2023/05/09 09:45:52;;;;;;;3.45;1.60;;;;;;;24.62;45.09;101013.81;5031276;28;20021;-62
2023/05/09 09:48:23;;;;;;;1.60;1.48;;;;;;;24.58;45.37;101018.06;5031003;28;20044;-62
2023/05/09 09:50:48;;;;;;;3.35;1.58;;;;;;;24.43;45.00;101014.75;5030644;28;20450;-63
2023/05/09 09:53:13;;;;;;;3.22;1.40;;;;;;;24.32;46.01;101013.50;5032845;28;20112;-64
2023/05/09 09:55:50;;;;;;;2.63;1.25;;;;;;;24.28;45.66;101012.28;5035860;28;20404;-63
2023/05/09 09:58:17;;;;;;;1.80;1.27;;;;;;;24.20;45.96;101004.25;5034315;28;20036;-62
2023/05/09 10:00:43;;;;;;;1.98;1.50;;;;;;;24.20;45.99;101004.25;5034628;28;20045;-62
2023/05/09 10:03:13;;;;;;;2.05;1.40;;;;;;;24.31;45.38;101005.53;5034431;28;20064;-63
2023/05/09 10:05:40;;;;;;;2.15;1.50;;;;;;;24.61;44.52;101001.22;5035725;28;20029;-63
2023/05/09 10:08:06;;;;;;;3.97;2.03;;;;;;;24.92;44.70;100991.41;5018101;28;20048;-62
2023/05/09 10:10:33;;;;;;;5.10;1.90;;;;;;;25.24;44.26;100993.94;5034243;28;20429;-62
2023/05/09 10:13:03;;;;;;;2.00;1.75;;;;;;;25.39;43.93;100999.97;5017631;28;20030;-63
2023/05/09 10:15:30;;;;;;;8.00;3.60;;;;;;;25.54;44.29;100991.47;5018371;28;20029;-62
2023/05/09 10:17:58;;;;;;;1.55;1.45;;;;;;;25.59;44.16;100988.03;5067345;28;20041;-63
2023/05/09 10:20:24;;;;;;;1.95;1.45;;;;;;;25.74;43.72;100983.88;5034091;28;20029;-62
2023/05/09 10:22:53;;;;;;;6.22;1.58;;;;;;;26.00;43.37;100980.91;5033941;28;20447;-62
2023/05/09 10:25:51;;;;;;;2.03;1.60;;;;;;;26.32;42.73;100983.56;5001438;28;20029;-62
2023/05/09 10:28:22;;;;;;;2.53;1.75;;;;;;;26.21;43.54;100970.59;5035295;28;20034;-63
2023/05/09 10:31:08;;;;;;;2.83;1.88;;;;;;;26.11;43.36;100965.56;5034224;28;20179;-64
2023/05/09 10:33:38;;;;;;;5.40;2.30;;;;;;;26.02;43.70;100959.53;5035186;28;20558;-64
2023/05/09 10:36:05;;;;;;;2.10;1.77;;;;;;;26.00;43.91;100964.44;5034453;28;20080;-64
2023/05/09 10:38:31;;;;;;;1.92;1.50;;;;;;;26.23;43.66;100960.19;5017242;28;20493;-63
2023/05/09 10:40:56;;;;;;;3.15;1.92;;;;;;;26.31;44.17;100951.66;5017300;28;20068;-63
2023/05/09 10:43:24;;;;;;;2.88;1.85;;;;;;;26.34;44.14;100951.19;5017084;28;20033;-63
2023/05/09 10:45:50;;;;;;;4.18;1.65;;;;;;;26.28;44.16;100946.63;5034176;28;20064;-64
2023/05/09 10:48:16;;;;;;;2.25;1.70;;;;;;;25.99;44.66;100946.25;5033672;28;20061;-64
2023/05/09 10:50:42;;;;;;;2.83;2.47;;;;;;;25.72;45.30;100939.34;5033477;28;20040;-63
2023/05/09 10:53:13;;;;;;;2.60;1.65;;;;;;;25.72;45.43;100938.50;5033405;28;20021;-64
2023/05/09 10:55:54;;;;;;;2.35;1.33;;;;;;;25.62;45.02;100944.53;5033670;28;20049;-65
2023/05/09 10:58:30;;;;;;;1.95;1.33;;;;;;;25.71;44.88;100939.59;5034762;28;20033;-64
2023/05/09 11:00:57;;;;;;;1.77;1.30;;;;;;;25.74;45.07;100931.72;5033107;28;20049;-64
2023/05/09 11:03:24;;;;;;;1.58;1.25;;;;;;;25.67;45.40;100933.72;5033597;28;20025;-63
2023/05/09 11:05:52;;;;;;;3.53;1.40;;;;;;;25.71;45.37;100934.09;5033403;28;20029;-64
2023/05/09 11:08:24;;;;;;;4.63;1.60;;;;;;;25.78;45.89;100929.38;5033272;28;20036;-64
2023/05/09 11:10:50;;;;;;;1.55;1.45;;;;;;;25.74;46.25;100930.91;5066277;28;20404;-63
2023/05/09 11:13:22;;;;;;;2.28;1.45;;;;;;;25.65;46.27;100927.63;5033235;28;20120;-63
2023/05/09 11:16:00;;;;;;;1.85;1.38;;;;;;;25.49;46.58;100925.41;5033841;28;20021;-63
2023/05/09 11:18:26;;;;;;;3.00;1.38;;;;;;;25.33;46.80;100928.69;5033037;28;20132;-63
2023/05/09 11:20:52;;;;;;;2.55;1.67;;;;;;;25.13;47.37;100917.03;5032953;28;20568;-64